Time;durP1;ratioP1;P1;durP2;ratioP2;P2;SDS_P1;SDS_P2;PMS_P1;PMS_P2;Temp;Humidity;BMP_temperature;BMP_pressure;BME280_temperature;BME280_humidity;BME280_pressure;Samples;Min_cycle;Max_cycle;Signal;HPM_P1;HPM_P2
2023/04/15 00:00:15;;;;;;;6.78;4.63;;;6.00;99.90;;;;;;5088104;28;20027;-93
2023/04/15 00:02:41;;;;;;;5.35;3.50;;;6.00;99.90;;;;;;5078514;28;20052;-92
2023/04/15 00:05:07;;;;;;;6.30;3.80;;;6.00;99.90;;;;;;5078614;28;20492;-92
2023/04/15 00:07:33;;;;;;;4.43;3.25;;;6.00;99.90;;;;;;5078308;28;20123;-93
2023/04/15 00:09:59;;;;;;;3.70;2.88;;;5.90;99.90;;;;;;5097246;28;20024;-93
2023/04/15 00:12:26;;;;;;;5.80;3.42;;;5.90;99.90;;;;;;5078239;28;20020;-93
2023/04/15 00:14:52;;;;;;;4.47;3.13;;;5.80;99.90;;;;;;5078460;28;20032;-92
2023/04/15 00:17:17;;;;;;;3.58;2.58;;;5.80;99.90;;;;;;5078258;28;20482;-93
2023/04/15 00:19:46;;;;;;;3.25;2.30;;;5.70;99.90;;;;;;5096260;28;20053;-93
2023/04/15 00:22:12;;;;;;;2.97;2.60;;;5.70;99.90;;;;;;5077289;28;20035;-92
2023/04/15 00:24:38;;;;;;;3.13;2.65;;;5.60;99.90;;;;;;5077453;28;20028;-91
2023/04/15 00:27:04;;;;;;;4.18;2.58;;;5.60;99.90;;;;;;5078129;28;20020;-92
2023/04/15 00:29:30;;;;;;;3.88;2.45;;;5.50;99.90;;;;;;5107219;28;20032;-92
2023/04/15 00:31:56;;;;;;;3.05;2.30;;;5.50;99.90;;;;;;5080238;28;20085;-91
2023/04/15 00:34:22;;;;;;;3.72;2.60;;;5.40;99.90;;;;;;5077746;28;20644;-90
2023/04/15 00:36:49;;;;;;;3.55;2.45;;;5.40;99.90;;;;;;5077588;28;20020;-90
2023/04/15 00:39:17;;;;;;;2.63;2.22;;;5.40;99.90;;;;;;5077408;28;20061;-92
2023/04/15 00:41:44;;;;;;;2.70;2.42;;;5.30;99.90;;;;;;5095192;28;20052;-92
2023/04/15 00:44:10;;;;;;;3.20;2.67;;;5.30;99.90;;;;;;5095229;28;20042;-90
2023/04/15 00:46:38;;;;;;;2.85;2.45;;;5.30;99.90;;;;;;5077227;28;20028;-92
2023/04/15 00:49:05;;;;;;;4.15;3.10;;;5.20;99.90;;;;;;5078088;28;20445;-92
2023/04/15 00:51:32;;;;;;;5.05;3.42;;;5.20;99.90;;;;;;5077581;28;20028;-92
2023/04/15 00:54:05;;;;;;;8.27;4.50;;;5.10;99.90;;;;;;5076722;28;20365;-92
2023/04/15 00:56:34;;;;;;;8.15;5.15;;;5.10;99.90;;;;;;5076360;28;20059;-91
2023/04/15 00:59:01;;;;;;;7.00;4.35;;;5.10;99.90;;;;;;5093934;28;20093;-90
2023/04/15 01:01:28;;;;;;;6.53;4.07;;;5.10;99.90;;;;;;5076528;28;20028;-91
2023/04/15 01:03:59;;;;;;;9.38;5.70;;;5.10;99.90;;;;;;5079156;28;20031;-91
2023/04/15 01:06:26;;;;;;;7.53;4.72;;;5.10;99.90;;;;;;5084043;28;20047;-91
2023/04/15 01:08:52;;;;;;;9.30;5.70;;;5.10;99.90;;;;;;5085683;28;20031;-91
2023/04/15 01:11:18;;;;;;;9.20;5.75;;;5.10;99.90;;;;;;5080526;28;20077;-92
2023/04/15 01:13:46;;;;;;;9.13;5.00;;;5.10;99.90;;;;;;5097014;28;20032;-91
2023/04/15 01:16:12;;;;;;;8.40;5.22;;;5.10;99.90;;;;;;5078269;28;20028;-93
2023/04/15 01:18:39;;;;;;;8.75;5.40;;;5.10;99.90;;;;;;5076684;28;20059;-92
2023/04/15 01:21:05;;;;;;;8.80;4.60;;;5.10;99.90;;;;;;5094730;28;20031;-93
2023/04/15 01:23:32;;;;;;;8.07;5.20;;;5.10;99.90;;;;;;5076523;28;20028;-92
2023/04/15 01:25:58;;;;;;;7.95;4.78;;;5.10;99.90;;;;;;5076387;28;20388;-91
2023/04/15 01:28:24;;;;;;;12.93;5.13;;;5.10;99.90;;;;;;5076532;28;20028;-94
2023/04/15 01:31:04;;;;;;;7.25;4.72;;;5.10;99.90;;;;;;5094711;28;20029;-92
2023/04/15 01:33:30;;;;;;;7.60;4.53;;;5.10;99.90;;;;;;5076117;28;20020;-92
2023/04/15 01:35:56;;;;;;;6.50;4.18;;;5.10;99.90;;;;;;5076179;28;20035;-93
2023/04/15 01:38:21;;;;;;;11.40;5.38;;;5.10;99.90;;;;;;5094511;28;20036;-93
2023/04/15 01:40:47;;;;;;;10.98;6.05;;;5.10;99.90;;;;;;5076798;28;20145;-92
2023/04/15 01:43:14;;;;;;;12.05;6.55;;;5.10;99.90;;;;;;5076924;28;20050;-92
2023/04/15 01:45:40;;;;;;;11.57;6.93;;;5.10;99.90;;;;;;5076783;28;20094;-93
2023/04/15 01:48:06;;;;;;;12.02;6.85;;;5.10;99.90;;;;;;5077049;28;20016;-91
2023/04/15 01:50:32;;;;;;;11.88;6.78;;;5.20;99.90;;;;;;5077124;28;20025;-91
2023/04/15 01:52:58;;;;;;;11.50;6.70;;;5.20;99.90;;;;;;5094971;28;20024;-91
2023/04/15 01:55:24;;;;;;;12.20;6.35;;;5.20;99.90;;;;;;5076869;28;20058;-92
2023/04/15 01:57:49;;;;;;;10.95;6.40;;;5.20;99.90;;;;;;5095037;28;20425;-91
2023/04/15 02:00:16;;;;;;;10.20;6.18;;;5.20;99.90;;;;;;5076919;28;20031;-91
2023/04/15 02:02:42;;;;;;;12.25;6.95;;;5.20;99.90;;;;;;5076593;28;20111;-91
2023/04/15 02:05:08;;;;;;;10.85;6.55;;;5.30;99.90;;;;;;5075874;28;20506;-92
2023/04/15 02:07:34;;;;;;;12.38;6.50;;;5.30;99.90;;;;;;5093853;28;20118;-92
2023/04/15 02:10:00;;;;;;;9.63;6.15;;;5.30;99.90;;;;;;5093823;28;20055;-92
2023/04/15 02:12:26;;;;;;;10.98;6.53;;;5.30;99.90;;;;;;5076371;28;20112;-92
2023/04/15 02:14:52;;;;;;;9.48;5.80;;;5.30;99.90;;;;;;5076666;28;20061;-92
2023/04/15 02:17:17;;;;;;;8.57;5.65;;;5.40;99.90;;;;;;5090440;28;20390;-93
2023/04/15 02:19:44;;;;;;;8.88;6.05;;;5.40;99.90;;;;;;5038728;28;20110;-92
2023/04/15 02:22:17;;;;;;;8.68;6.03;;;5.30;99.90;;;;;;5055486;28;20059;-91
2023/04/15 02:24:42;;;;;;;9.13;5.95;;;5.30;99.90;;;;;;5073224;28;20470;-92
2023/04/15 02:27:08;;;;;;;9.32;6.28;;;5.30;99.90;;;;;;5073014;28;20111;-92
2023/04/15 02:29:34;;;;;;;10.40;5.90;;;5.40;99.90;;;;;;5073066;28;20418;-92
2023/04/15 02:31:59;;;;;;;10.70;6.30;;;5.30;99.90;;;;;;5073381;28;20043;-91
2023/04/15 02:34:26;;;;;;;12.73;6.78;;;5.40;99.90;;;;;;5072271;28;20147;-93
2023/04/15 02:36:56;;;;;;;11.07;6.43;;;5.30;99.90;;;;;;5072934;28;20020;-91
2023/04/15 02:39:22;;;;;;;12.15;7.50;;;5.40;99.90;;;;;;5054964;28;20037;-90
2023/04/15 02:41:50;;;;;;;12.50;7.10;;;5.30;99.90;;;;;;5055457;28;20028;-93
2023/04/15 02:44:20;;;;;;;12.05;6.88;;;5.30;99.90;;;;;;5073273;28;20492;-88
2023/04/15 02:46:49;;;;;;;12.45;7.57;;;5.40;99.90;;;;;;5055407;28;20021;-93
2023/04/15 02:49:15;;;;;;;11.65;6.80;;;5.40;99.90;;;;;;5054973;28;20119;-92
2023/04/15 02:51:41;;;;;;;13.45;7.30;;;5.40;99.90;;;;;;5073250;28;20111;-91
2023/04/15 02:54:07;;;;;;;11.02;6.63;;;5.40;99.90;;;;;;5054971;28;20033;-92
2023/04/15 02:56:33;;;;;;;8.57;5.55;;;5.40;99.90;;;;;;5072852;28;20386;-92
2023/04/15 02:58:59;;;;;;;8.73;5.80;;;5.40;99.90;;;;;;5055389;28;20064;-91
2023/04/15 03:01:25;;;;;;;10.05;5.70;;;5.40;99.90;;;;;;5073319;28;20039;-89
2023/04/15 03:03:50;;;;;;;8.43;5.57;;;5.40;99.90;;;;;;5054999;28;20064;-91
2023/04/15 03:06:16;;;;;;;7.47;5.47;;;5.30;99.90;;;;;;5055424;28;20048;-91
2023/04/15 03:08:42;;;;;;;9.32;5.40;;;5.30;99.90;;;;;;5072969;28;20028;-91
2023/04/15 03:11:07;;;;;;;8.52;5.28;;;5.30;99.90;;;;;;5072724;28;20028;-92
2023/04/15 03:13:33;;;;;;;8.90;5.72;;;5.30;99.90;;;;;;5071496;28;20425;-91
2023/04/15 03:15:58;;;;;;;7.47;5.13;;;5.30;99.90;;;;;;5054964;28;20070;-91
2023/04/15 03:18:24;;;;;;;6.93;5.45;;;5.30;99.90;;;;;;5055141;28;20048;-92
2023/04/15 03:20:50;;;;;;;6.82;4.90;;;5.30;99.90;;;;;;5073317;28;20533;-93
2023/04/15 03:23:16;;;;;;;9.73;5.03;;;5.30;99.90;;;;;;5078347;28;20024;-92
2023/04/15 03:25:41;;;;;;;9.45;6.10;;;5.30;99.90;;;;;;5078823;28;20029;-92
2023/04/15 03:28:07;;;;;;;7.00;4.53;;;5.30;99.90;;;;;;5081055;28;20028;-93
2023/04/15 03:30:32;;;;;;;9.02;5.82;;;5.30;99.90;;;;;;5060277;28;20021;-92
2023/04/15 03:32:58;;;;;;;6.53;4.68;;;5.20;99.90;;;;;;5060610;28;20064;-88
2023/04/15 03:35:24;;;;;;;7.03;4.15;;;5.20;99.90;;;;;;5079245;28;20025;-91
2023/04/15 03:37:49;;;;;;;6.78;4.40;;;5.20;99.90;;;;;;5077171;28;20036;-92
2023/04/15 03:40:15;;;;;;;5.72;3.55;;;5.20;99.90;;;;;;5077694;28;20032;-91
2023/04/15 03:42:41;;;;;;;4.45;3.17;;;5.20;99.90;;;;;;5060140;28;20028;-92
2023/04/15 03:45:07;;;;;;;5.78;3.72;;;5.20;99.90;;;;;;5059250;28;20025;-90
2023/04/15 03:47:32;;;;;;;4.63;3.22;;;5.10;99.90;;;;;;5057956;28;20075;-91
2023/04/15 03:49:58;;;;;;;4.95;3.53;;;5.10;99.90;;;;;;5077032;28;20124;-92
2023/04/15 03:52:24;;;;;;;7.15;3.85;;;5.10;99.90;;;;;;5064977;28;20056;-89
2023/04/15 03:54:50;;;;;;;5.82;3.90;;;5.10;99.90;;;;;;5065433;28;20042;-92
2023/04/15 03:57:15;;;;;;;7.35;4.50;;;5.10;99.90;;;;;;5065641;28;20038;-90
2023/04/15 03:59:41;;;;;;;7.63;4.32;;;5.10;99.90;;;;;;5066006;28;20035;-91
2023/04/15 04:02:07;;;;;;;7.38;5.13;;;5.10;99.90;;;;;;5061442;28;20032;-91
2023/04/15 04:04:32;;;;;;;9.20;5.07;;;5.10;99.90;;;;;;5084052;28;20068;-90
2023/04/15 04:06:58;;;;;;;7.63;5.22;;;5.10;99.90;;;;;;5082747;28;20103;-91
2023/04/15 04:09:24;;;;;;;8.43;5.13;;;5.00;99.90;;;;;;5078503;28;20047;-92
2023/04/15 04:11:50;;;;;;;10.43;5.53;;;5.00;99.90;;;;;;5078263;28;20035;-92
2023/04/15 04:14:15;;;;;;;8.25;5.55;;;5.00;99.90;;;;;;5082018;28;20028;-92
2023/04/15 04:16:41;;;;;;;7.93;5.10;;;5.00;99.90;;;;;;5078674;28;20544;-92
2023/04/15 04:19:07;;;;;;;8.07;5.03;;;5.00;99.90;;;;;;5077482;28;20024;-90
2023/04/15 04:21:33;;;;;;;9.77;5.30;;;5.00;99.90;;;;;;5058706;28;20031;-90
2023/04/15 04:23:58;;;;;;;8.70;5.50;;;4.90;99.90;;;;;;5057999;28;20026;-90
2023/04/15 04:26:24;;;;;;;10.38;6.10;;;4.90;99.90;;;;;;5058057;28;20108;-91
2023/04/15 04:28:50;;;;;;;9.45;6.20;;;4.80;99.90;;;;;;5074622;28;20040;-92
2023/04/15 04:31:16;;;;;;;10.30;5.90;;;4.80;99.90;;;;;;5057422;28;20021;-91
2023/04/15 04:33:42;;;;;;;11.65;6.05;;;4.80;99.90;;;;;;5076638;28;20020;-90
2023/04/15 04:36:07;;;;;;;9.75;5.97;;;4.70;99.90;;;;;;5058499;28;20056;-89
2023/04/15 04:38:33;;;;;;;13.77;7.25;;;4.70;99.90;;;;;;5058750;28;20040;-91
2023/04/15 04:40:59;;;;;;;10.80;6.82;;;4.70;99.90;;;;;;5058395;28;20021;-92
2023/04/15 04:43:25;;;;;;;9.10;6.28;;;4.60;99.90;;;;;;5058196;28;20440;-92
2023/04/15 04:45:50;;;;;;;8.80;5.63;;;4.60;99.90;;;;;;5074503;28;20123;-89
2023/04/15 04:48:16;;;;;;;7.82;4.85;;;4.60;99.90;;;;;;5058616;28;20051;-92
2023/04/15 04:50:43;;;;;;;7.68;5.00;;;4.60;99.90;;;;;;5075137;28;20025;-92
2023/04/15 04:53:09;;;;;;;8.60;4.32;;;4.50;99.90;;;;;;5074597;28;20024;-92
2023/04/15 04:55:35;;;;;;;8.48;5.03;;;4.50;99.90;;;;;;5057593;28;20029;-92
2023/04/15 04:58:02;;;;;;;5.68;3.80;;;4.50;99.90;;;;;;5057108;28;20382;-91
2023/04/15 05:00:28;;;;;;;6.65;4.15;;;4.40;99.90;;;;;;5075680;28;20036;-91
2023/04/15 05:02:54;;;;;;;10.05;5.93;;;4.40;99.90;;;;;;5075563;28;20104;-90
2023/04/15 05:05:20;;;;;;;8.52;4.53;;;4.40;99.90;;;;;;5057531;28;20036;-92
2023/04/15 05:07:48;;;;;;;9.25;5.18;;;4.40;99.90;;;;;;5057182;28;20020;-90
2023/04/15 05:10:14;;;;;;;9.32;4.85;;;4.30;99.90;;;;;;5074495;28;20108;-90
2023/04/15 05:12:40;;;;;;;7.78;4.93;;;4.30;99.90;;;;;;5064549;28;20036;-90
2023/04/15 05:15:06;;;;;;;7.80;5.22;;;4.30;99.90;;;;;;5067156;28;20032;-92
2023/04/15 05:17:34;;;;;;;15.77;6.75;;;4.30;99.90;;;;;;5066315;28;20048;-90
2023/04/15 05:20:00;;;;;;;12.23;6.60;;;4.30;99.90;;;;;;5081127;28;20040;-90
2023/04/15 05:22:25;;;;;;;10.23;5.88;;;4.30;99.90;;;;;;5062650;28;20017;-91
2023/04/15 05:24:51;;;;;;;11.55;6.88;;;4.20;99.90;;;;;;5059548;28;20047;-92
2023/04/15 05:27:18;;;;;;;11.85;6.55;;;4.10;99.90;;;;;;5056307;28;20086;-90
2023/04/15 05:29:43;;;;;;;10.45;6.32;;;4.10;99.90;;;;;;5056680;28;20078;-92
2023/04/15 05:32:09;;;;;;;10.95;6.68;;;4.10;99.90;;;;;;5056226;28;20020;-89
2023/04/15 05:34:36;;;;;;;11.18;6.80;;;4.10;99.90;;;;;;5073750;28;20036;-90
2023/04/15 05:37:01;;;;;;;12.65;7.82;;;4.10;99.90;;;;;;5073062;28;20020;-91
2023/04/15 05:39:27;;;;;;;14.43;6.57;;;4.10;99.90;;;;;;5057293;28;20037;-91
2023/04/15 05:41:53;;;;;;;14.35;7.28;;;4.10;99.90;;;;;;5072825;28;20032;-89
2023/04/15 05:44:19;;;;;;;11.32;6.80;;;4.20;99.90;;;;;;5055888;28;20048;-90
2023/04/15 05:46:44;;;;;;;14.98;7.50;;;4.20;99.90;;;;;;5073296;28;20021;-90
2023/04/15 05:49:10;;;;;;;12.25;6.95;;;4.20;99.90;;;;;;5055457;28;20378;-92
2023/04/15 05:51:36;;;;;;;12.82;6.97;;;4.20;99.90;;;;;;5056123;28;20025;-90
2023/04/15 05:54:02;;;;;;;14.40;7.30;;;4.20;99.90;;;;;;5055953;28;20051;-91
2023/04/15 05:56:27;;;;;;;11.27;6.32;;;4.20;99.90;;;;;;5074058;28;20020;-91
2023/04/15 05:58:53;;;;;;;12.02;6.93;;;4.20;99.90;;;;;;5073137;28;20037;-89
2023/04/15 06:01:19;;;;;;;12.65;6.60;;;4.20;99.90;;;;;;5072650;28;20062;-91
2023/04/15 06:03:45;;;;;;;12.40;7.38;;;4.20;99.90;;;;;;5071963;28;20024;-90
2023/04/15 06:06:10;;;;;;;12.48;7.78;;;4.30;99.90;;;;;;5055577;28;20020;-90
2023/04/15 06:08:36;;;;;;;15.10;7.88;;;4.30;99.90;;;;;;5055520;28;20061;-90
2023/04/15 06:11:02;;;;;;;12.25;7.32;;;4.30;99.90;;;;;;5054974;28;20534;-92
2023/04/15 06:13:28;;;;;;;12.48;7.70;;;4.30;99.90;;;;;;5073027;28;20040;-91
2023/04/15 06:15:54;;;;;;;12.10;7.10;;;4.30;99.90;;;;;;5071813;28;20020;-90
2023/04/15 06:18:20;;;;;;;13.45;7.95;;;4.30;99.90;;;;;;5054965;28;20477;-91
2023/04/15 06:20:45;;;;;;;17.70;8.50;;;4.40;99.90;;;;;;5055622;28;20035;-90
2023/04/15 06:23:11;;;;;;;15.63;8.60;;;4.40;99.90;;;;;;5055325;28;20032;-91
2023/04/15 06:25:36;;;;;;;13.55;7.72;;;4.50;99.90;;;;;;5072979;28;20032;-89
2023/04/15 06:28:02;;;;;;;13.73;8.05;;;4.60;99.90;;;;;;5055254;28;20050;-91
2023/04/15 06:30:28;;;;;;;15.02;8.38;;;4.70;99.90;;;;;;5055544;28;20036;-91
2023/04/15 06:32:54;;;;;;;15.27;8.73;;;4.80;99.90;;;;;;5072706;28;20029;-93
2023/04/15 06:35:20;;;;;;;16.27;7.82;;;4.80;99.90;;;;;;5055125;28;20021;-93
2023/04/15 06:37:45;;;;;;;14.02;7.63;;;4.90;99.90;;;;;;5055346;28;20500;-93
2023/04/15 06:40:12;;;;;;;13.43;8.30;;;5.00;99.90;;;;;;5057235;28;20046;-91
2023/04/15 06:42:37;;;;;;;14.43;7.60;;;5.00;99.90;;;;;;5055059;28;20028;-94
2023/04/15 06:45:03;;;;;;;12.48;7.40;;;5.10;99.90;;;;;;5060285;28;20115;-93
2023/04/15 06:47:29;;;;;;;14.55;8.68;;;5.10;99.90;;;;;;5073535;28;20028;-93
2023/04/15 06:49:55;;;;;;;16.75;9.18;;;5.20;99.90;;;;;;5069854;28;20025;-92
2023/04/15 06:52:20;;;;;;;13.77;8.23;;;5.30;99.90;;;;;;5066715;28;20032;-93
2023/04/15 06:54:46;;;;;;;14.05;7.63;;;5.30;99.90;;;;;;5068993;28;20121;-93
2023/04/15 06:57:12;;;;;;;14.38;7.25;;;5.30;99.90;;;;;;5068902;28;20712;-93
2023/04/15 06:59:37;;;;;;;10.95;7.50;;;5.40;99.90;;;;;;5063405;28;20035;-93
2023/04/15 07:02:03;;;;;;;11.15;7.03;;;5.40;99.90;;;;;;5064020;28;20059;-95
2023/04/15 07:04:29;;;;;;;11.25;6.60;;;5.50;99.90;;;;;;5067045;28;20028;-95
2023/04/15 07:06:55;;;;;;;10.95;6.28;;;5.60;99.90;;;;;;5071023;28;20020;-94
2023/04/15 07:09:25;;;;;;;14.68;8.13;;;5.60;99.90;;;;;;5084343;28;20048;-94
2023/04/15 07:11:51;;;;;;;9.52;6.70;;;5.70;99.90;;;;;;5066498;28;20032;-90
2023/04/15 07:14:17;;;;;;;12.07;7.22;;;5.80;99.90;;;;;;5070410;28;20032;-94
2023/04/15 07:16:42;;;;;;;12.43;7.82;;;5.90;99.90;;;;;;5067933;28;20032;-92
2023/04/15 07:19:08;;;;;;;12.10;7.18;;;6.00;99.90;;;;;;5067237;28;20036;-95
2023/04/15 07:21:34;;;;;;;12.85;7.03;;;6.10;99.90;;;;;;5059203;28;20107;-91
2023/04/15 07:24:00;;;;;;;11.05;7.45;;;6.20;99.90;;;;;;5062139;28;20024;-94
2023/04/15 07:26:25;;;;;;;11.65;6.70;;;6.30;99.90;;;;;;5062309;28;20028;-93
2023/04/15 07:28:51;;;;;;;9.45;6.10;;;6.40;99.90;;;;;;5060176;28;20239;-93
2023/04/15 07:31:17;;;;;;;10.65;6.78;;;6.40;99.90;;;;;;5068249;28;20153;-92
2023/04/15 07:33:43;;;;;;;14.20;7.00;;;6.40;99.90;;;;;;5059636;28;20504;-92
2023/04/15 07:36:09;;;;;;;10.95;6.90;;;6.50;99.90;;;;;;5082409;28;20032;-94
2023/04/15 07:38:34;;;;;;;11.77;6.57;;;6.50;99.90;;;;;;5063107;28;20059;-93
2023/04/15 07:41:00;;;;;;;10.77;6.78;;;6.60;99.90;;;;;;5059228;28;20028;-94
2023/04/15 07:43:26;;;;;;;12.52;6.55;;;6.60;99.90;;;;;;5066222;28;20123;-92
2023/04/15 07:45:51;;;;;;;12.98;7.10;;;6.60;99.90;;;;;;5080169;28;20024;-92
2023/04/15 07:48:17;;;;;;;14.10;6.80;;;6.60;99.90;;;;;;5073427;28;20534;-94
2023/04/15 07:50:43;;;;;;;13.95;7.70;;;6.70;99.90;;;;;;5072284;28;20507;-92
2023/04/15 07:53:08;;;;;;;11.65;6.75;;;6.70;99.90;;;;;;5065841;28;20592;-92
2023/04/15 07:55:34;;;;;;;12.98;6.28;;;6.70;99.90;;;;;;5073319;28;20501;-93
2023/04/15 07:58:00;;;;;;;10.35;6.38;;;6.80;99.90;;;;;;5078336;28;20040;-93
2023/04/15 08:00:25;;;;;;;12.40;6.57;;;6.80;99.90;;;;;;5071886;28;20389;-95
2023/04/15 08:02:52;;;;;;;11.88;7.10;;;6.90;99.90;;;;;;5059421;28;20020;-94
2023/04/15 08:05:19;;;;;;;11.02;6.78;;;6.90;99.90;;;;;;5076357;28;20021;-94
2023/04/15 08:07:45;;;;;;;12.30;6.80;;;7.00;99.90;;;;;;5078621;28;20610;-93
2023/04/15 08:10:11;;;;;;;13.00;6.63;;;7.00;99.90;;;;;;5058791;28;20158;-93
2023/04/15 08:12:37;;;;;;;10.25;4.45;;;7.10;99.90;;;;;;5069519;28;20044;-93
2023/04/15 08:15:03;;;;;;;8.52;3.15;;;7.20;99.90;;;;;;5073798;28;20745;-93
2023/04/15 08:17:29;;;;;;;9.48;4.28;;;7.30;99.90;;;;;;5075306;28;20101;-90
2023/04/15 08:19:54;;;;;;;13.02;3.70;;;7.30;99.90;;;;;;5068845;28;20028;-90
2023/04/15 08:22:20;;;;;;;10.00;3.53;;;7.50;99.90;;;;;;5059121;28;20029;-92
2023/04/15 08:24:46;;;;;;;9.90;3.78;;;7.50;99.90;;;;;;5062275;28;20031;-90
2023/04/15 08:27:12;;;;;;;8.35;3.65;;;7.70;99.90;;;;;;5061829;28;20021;-91
2023/04/15 08:29:38;;;;;;;7.63;3.00;;;7.80;99.90;;;;;;5057548;28;20035;-92
2023/04/15 08:32:05;;;;;;;5.10;2.70;;;8.00;99.90;;;;;;5057735;28;20024;-92
2023/04/15 08:34:31;;;;;;;9.45;3.40;;;8.10;99.90;;;;;;5075348;28;20021;-89
2023/04/15 08:36:56;;;;;;;8.38;3.40;;;8.30;99.90;;;;;;5076269;28;20032;-90
2023/04/15 08:39:22;;;;;;;11.13;3.80;;;8.30;99.90;;;;;;5057232;28;20036;-91
2023/04/15 08:42:00;;;;;;;7.90;4.00;;;8.30;99.90;;;;;;5079631;28;20016;-88
2023/04/15 08:44:30;;;;;;;11.02;4.40;;;8.30;99.90;;;;;;5067399;28;20213;-90
2023/04/15 08:47:00;;;;;;;10.93;4.50;;;8.30;99.90;;;;;;5059310;28;20048;-91
2023/04/15 08:49:27;;;;;;;5.03;3.47;;;8.20;99.90;;;;;;5065526;28;20477;-92
2023/04/15 08:51:55;;;;;;;9.52;4.10;;;8.20;99.90;;;;;;5081214;28;20040;-90
2023/04/15 08:54:21;;;;;;;7.82;3.25;;;8.20;99.90;;;;;;5063181;28;20028;-89
2023/04/15 08:56:47;;;;;;;6.97;3.95;;;8.30;99.90;;;;;;5064629;28;20119;-90
2023/04/15 08:59:15;;;;;;;8.20;3.80;;;8.40;99.90;;;;;;5068190;28;20115;-92
2023/04/15 09:01:41;;;;;;;5.22;3.97;;;8.40;99.90;;;;;;5084559;28;20035;-91
2023/04/15 09:04:07;;;;;;;10.45;4.20;;;8.50;99.90;;;;;;5065535;28;20037;-90
2023/04/15 09:06:33;;;;;;;9.13;4.38;;;8.60;99.90;;;;;;5059628;28;20024;-91
2023/04/15 09:08:59;;;;;;;9.20;3.60;;;8.70;99.90;;;;;;5058524;28;20397;-91
2023/04/15 09:11:25;;;;;;;9.90;3.83;;;8.80;99.90;;;;;;5077682;28;20538;-89
2023/04/15 09:13:51;;;;;;;9.07;3.28;;;9.00;99.90;;;;;;5077335;28;20031;-90
2023/04/15 09:16:17;;;;;;;8.13;3.67;;;9.10;99.90;;;;;;5074308;28;20157;-90
2023/04/15 09:18:44;;;;;;;5.85;3.47;;;9.20;99.90;;;;;;5070824;28;20078;-91
2023/04/15 09:21:13;;;;;;;9.70;3.53;;;9.40;99.90;;;;;;5068843;28;20166;-92
2023/04/15 09:23:40;;;;;;;8.00;3.35;;;9.50;99.90;;;;;;5074303;28;20684;-92
2023/04/15 09:26:07;;;;;;;9.75;3.25;;;9.60;99.90;;;;;;5072670;28;20032;-89
2023/04/15 09:28:51;;;;;;;7.72;3.38;;;9.70;99.90;;;;;;5058762;28;20096;-89
2023/04/15 09:31:28;;;;;;;10.20;3.25;;;9.80;99.90;;;;;;5060748;28;20485;-91
2023/04/15 09:33:57;;;;;;;11.80;3.50;;;9.90;99.90;;;;;;5083316;28;20028;-88
2023/04/15 09:36:24;;;;;;;4.75;3.08;;;9.90;99.90;;;;;;5066808;28;20089;-91
2023/04/15 09:38:59;;;;;;;9.60;2.78;;;10.00;99.90;;;;;;5057671;28;20103;-91
2023/04/15 09:41:27;;;;;;;8.82;3.03;;;10.00;99.90;;;;;;5075465;28;20111;-90
2023/04/15 09:43:53;;;;;;;9.23;3.03;;;10.10;99.90;;;;;;5073561;28;20037;-90
2023/04/15 09:46:19;;;;;;;9.13;3.10;;;10.20;99.90;;;;;;5057690;28;20031;-91
2023/04/15 09:48:45;;;;;;;7.60;2.90;;;10.20;99.90;;;;;;5058396;28;20770;-91
2023/04/15 09:51:11;;;;;;;8.00;2.55;;;10.30;99.90;;;;;;5068973;28;20381;-90
2023/04/15 09:53:39;;;;;;;9.32;3.20;;;10.40;99.90;;;;;;5093761;28;20034;-92
2023/04/15 09:56:06;;;;;;;13.13;3.63;;;10.50;99.90;;;;;;5095942;28;20039;-91
2023/04/15 09:58:34;;;;;;;10.43;2.83;;;10.60;99.90;;;;;;5086097;28;20043;-90
2023/04/15 10:01:02;;;;;;;6.70;2.15;;;10.70;99.90;;;;;;5093888;28;20040;-91
2023/04/15 10:03:29;;;;;;;6.75;2.70;;;10.80;99.90;;;;;;5063067;28;20385;-89
2023/04/15 10:05:57;;;;;;;6.57;2.95;;;10.90;99.90;;;;;;5096501;28;20042;-90
2023/04/15 10:08:26;;;;;;;6.60;2.63;;;11.10;99.90;;;;;;5087369;28;20016;-90
2023/04/15 10:10:52;;;;;;;8.18;2.60;;;11.40;99.90;;;;;;5064366;28;20026;-90
2023/04/15 10:13:23;;;;;;;9.13;3.45;;;11.60;99.90;;;;;;5068206;28;20024;-89
2023/04/15 10:15:59;;;;;;;7.43;2.20;;;11.80;99.90;;;;;;5067968;28;20176;-89
2023/04/15 10:18:27;;;;;;;9.07;2.50;;;12.10;99.90;;;;;;5064955;28;20044;-90
2023/04/15 10:20:54;;;;;;;6.72;2.63;;;12.30;99.90;;;;;;5066747;28;20381;-91
2023/04/15 10:23:21;;;;;;;8.98;3.20;;;12.50;99.90;;;;;;5057651;28;20039;-91
2023/04/15 10:25:48;;;;;;;9.88;3.33;;;12.70;99.90;;;;;;5083505;28;20020;-91
2023/04/15 10:28:15;;;;;;;8.00;3.20;;;12.90;99.90;;;;;;5059343;28;20556;-91
2023/04/15 10:30:42;;;;;;;8.23;3.78;;;13.00;99.90;;;;;;5058300;28;20028;-90
2023/04/15 10:33:10;;;;;;;9.43;3.15;;;13.10;99.90;;;;;;5072526;28;20025;-91
2023/04/15 10:35:36;;;;;;;9.80;3.70;;;13.30;99.90;;;;;;5054695;28;20122;-89
2023/04/15 10:38:22;;;;;;;12.68;3.55;;;13.50;99.90;;;;;;5054321;28;20478;-90
2023/04/15 10:40:49;;;;;;;6.72;2.83;;;13.60;99.90;;;;;;5054289;28;20062;-90
2023/04/15 10:43:25;;;;;;;8.20;3.28;;;13.80;99.90;;;;;;5071423;28;20029;-90
2023/04/15 10:45:52;;;;;;;8.65;3.20;;;13.90;99.90;;;;;;5053452;28;20033;-90
2023/04/15 10:48:18;;;;;;;6.97;3.47;;;14.00;99.90;;;;;;5072130;28;20025;-90
2023/04/15 10:51:04;;;;;;;10.02;3.83;;;14.10;99.90;;;;;;5072530;28;20496;-92
2023/04/15 10:53:30;;;;;;;7.35;3.50;;;14.00;99.90;;;;;;5054052;28;20024;-90
2023/04/15 10:55:59;;;;;;;6.32;3.22;;;14.00;99.90;;;;;;5056794;28;20020;-91
2023/04/15 10:58:26;;;;;;;8.10;4.03;;;14.10;99.90;;;;;;5073702;28;20025;-90
2023/04/15 11:00:52;;;;;;;9.57;3.35;;;14.20;99.90;;;;;;5055365;28;20020;-91
2023/04/15 11:03:39;;;;;;;7.70;2.80;;;14.30;99.90;;;;;;5073266;28;20044;-91
2023/04/15 11:06:06;;;;;;;10.75;3.88;;;14.50;99.90;;;;;;5056018;28;20105;-90
2023/04/15 11:08:53;;;;;;;8.45;3.08;;;14.60;99.90;;;;;;5055687;28;20047;-91
2023/04/15 11:11:19;;;;;;;9.75;3.05;;;14.80;99.90;;;;;;5055798;28;20020;-89
2023/04/15 11:13:49;;;;;;;5.70;3.00;;;15.00;99.90;;;;;;5055799;28;20074;-91
2023/04/15 11:16:15;;;;;;;8.32;3.00;;;15.30;98.90;;;;;;5056414;28;20108;-90
2023/04/15 11:18:42;;;;;;;8.00;2.65;;;15.50;98.00;;;;;;5057033;28;20050;-88
2023/04/15 11:21:08;;;;;;;8.50;2.88;;;15.70;97.10;;;;;;5055467;28;20153;-90
2023/04/15 11:23:36;;;;;;;8.02;2.55;;;15.90;95.40;;;;;;5055797;28;20051;-91
2023/04/15 11:26:08;;;;;;;7.28;2.67;;;16.10;94.60;;;;;;5074619;28;20032;-91
2023/04/15 11:28:35;;;;;;;4.35;2.13;;;16.40;93.50;;;;;;5073467;28;20359;-91
2023/04/15 11:31:12;;;;;;;4.32;2.10;;;16.50;91.80;;;;;;5055191;28;20025;-90
2023/04/15 11:33:54;;;;;;;4.07;2.10;;;16.50;90.70;;;;;;5073819;28;20033;-92
2023/04/15 11:36:20;;;;;;;8.60;3.03;;;16.60;90.60;;;;;;5055464;28;20029;-90
2023/04/15 11:38:46;;;;;;;7.00;2.17;;;16.80;90.30;;;;;;5055185;28;20085;-90
2023/04/15 11:41:12;;;;;;;5.15;2.15;;;17.00;90.10;;;;;;5075970;28;20025;-91
2023/04/15 11:43:38;;;;;;;8.07;2.20;;;17.10;88.60;;;;;;5059813;28;20027;-89
2023/04/15 11:46:04;;;;;;;6.90;2.28;;;17.10;86.90;;;;;;5059361;28;20469;-91
2023/04/15 11:48:35;;;;;;;7.03;2.17;;;17.20;86.50;;;;;;5059057;28;20024;-90
2023/04/15 11:51:02;;;;;;;8.90;2.47;;;17.30;85.20;;;;;;5058897;28;20135;-92
2023/04/15 11:53:54;;;;;;;4.93;2.28;;;17.10;83.60;;;;;;5058830;28;20027;-90
2023/04/15 11:56:22;;;;;;;7.28;2.28;;;16.90;83.60;;;;;;5055718;28;20036;-91
2023/04/15 11:58:51;;;;;;;6.20;2.50;;;16.70;83.20;;;;;;5076130;28;20032;-91
2023/04/15 12:01:17;;;;;;;3.47;2.30;;;16.50;82.50;;;;;;5059297;28;20478;-91
2023/04/15 12:03:45;;;;;;;8.10;2.85;;;16.30;83.10;;;;;;5077169;28;20029;-92
2023/04/15 12:06:23;;;;;;;5.95;2.40;;;16.10;82.80;;;;;;5059222;28;20078;-91
2023/04/15 12:09:08;;;;;;;8.20;3.10;;;15.80;83.40;;;;;;5059537;28;20029;-92
2023/04/15 12:11:51;;;;;;;8.32;2.80;;;15.60;83.80;;;;;;5058815;28;20024;-91
2023/04/15 12:14:28;;;;;;;8.00;2.70;;;15.50;83.90;;;;;;5076408;28;20029;-90
2023/04/15 12:17:02;;;;;;;9.13;3.40;;;15.30;84.60;;;;;;5058450;28;20052;-91
2023/04/15 12:19:31;;;;;;;7.03;2.97;;;15.30;85.30;;;;;;5076039;28;20032;-91
2023/04/15 12:22:16;;;;;;;7.35;2.88;;;15.30;85.50;;;;;;5075944;28;20017;-90
2023/04/15 12:24:46;;;;;;;5.18;2.67;;;15.20;85.40;;;;;;5058267;28;20123;-90
2023/04/15 12:27:15;;;;;;;4.88;3.00;;;15.20;85.60;;;;;;5076164;28;20017;-90
2023/04/15 12:29:42;;;;;;;7.28;2.80;;;15.00;86.10;;;;;;5058478;28;20251;-91
2023/04/15 12:32:08;;;;;;;8.18;2.65;;;14.90;86.00;;;;;;5076116;28;20028;-90
2023/04/15 12:34:39;;;;;;;7.20;2.95;;;14.70;86.30;;;;;;5057666;28;20029;-91
2023/04/15 12:37:08;;;;;;;8.32;3.30;;;14.60;86.70;;;;;;5058065;28;20028;-90
2023/04/15 12:39:42;;;;;;;6.82;3.08;;;14.50;87.00;;;;;;5058333;28;20081;-90
2023/04/15 12:42:08;;;;;;;8.52;3.40;;;14.40;87.30;;;;;;5058181;28;20017;-90
2023/04/15 12:44:35;;;;;;;9.27;4.28;;;14.30;87.30;;;;;;5058177;28;20032;-91
2023/04/15 12:47:00;;;;;;;8.27;3.35;;;14.30;87.80;;;;;;5075533;28;20031;-90
2023/04/15 12:49:27;;;;;;;11.40;4.05;;;14.30;88.10;;;;;;5075394;28;20615;-90